Flugplatz Husum-Schwesing

Für EDXJ sind keine METAR/TAF Berichte vorhanden.
Es werden die Flugwettermeldungen vom Flugplatz Schleswig Airport in 25 km Entfernung angezeigt.

Bericht für ETNS

vom 20.09. um 14:20 UTC

Wind 11 kt aus 50°

Sichtweite 10 km oder mehr

Temperatur 18.0°C

Taupunkt 8.0°C

Luftfeuchtigkeit 52%

Luftdruck 1020 hPa

ETNS 201420Z AUTO 05011KT 9999 // ////// 18/08 Q1020 ///
Keine Prognose (TAF) verfügbar.
Impressum